sensor_id;sensor_type;location;lat;lon;timestamp;temperature;humidity
54960;DHT22;40860;51.710;8.736;2024-02-26T00:02:50;4.70;99.90
54960;DHT22;40860;51.710;8.736;2024-02-26T00:06:54;4.70;99.90
54960;DHT22;40860;51.710;8.736;2024-02-26T00:10:57;4.70;99.90
54960;DHT22;40860;51.710;8.736;2024-02-26T00:15:00;4.60;99.90
54960;DHT22;40860;51.710;8.736;2024-02-26T00:19:03;4.70;99.90
54960;DHT22;40860;51.710;8.736;2024-02-26T00:23:08;4.70;99.90
54960;DHT22;40860;51.710;8.736;2024-02-26T00:27:10;4.70;99.90
54960;DHT22;40860;51.710;8.736;2024-02-26T00:31:13;4.70;99.90
54960;DHT22;40860;51.710;8.736;2024-02-26T00:35:16;4.70;99.90
54960;DHT22;40860;51.710;8.736;2024-02-26T00:39:23;4.80;99.90
54960;DHT22;40860;51.710;8.736;2024-02-26T00:43:26;4.70;99.90
54960;DHT22;40860;51.710;8.736;2024-02-26T00:47:29;4.70;99.90
54960;DHT22;40860;51.710;8.736;2024-02-26T00:51:32;4.70;99.90
54960;DHT22;40860;51.710;8.736;2024-02-26T00:55:37;4.60;99.90
54960;DHT22;40860;51.710;8.736;2024-02-26T00:59:39;4.60;99.90
54960;DHT22;40860;51.710;8.736;2024-02-26T01:03:42;4.60;99.90
54960;DHT22;40860;51.710;8.736;2024-02-26T01:07:45;4.60;99.90
54960;DHT22;40860;51.710;8.736;2024-02-26T01:11:50;4.60;99.90
54960;DHT22;40860;51.710;8.736;2024-02-26T01:15:53;4.60;99.90
54960;DHT22;40860;51.710;8.736;2024-02-26T01:19:55;4.60;99.90
54960;DHT22;40860;51.710;8.736;2024-02-26T01:23:59;4.60;99.90
54960;DHT22;40860;51.710;8.736;2024-02-26T01:28:03;4.70;99.90
54960;DHT22;40860;51.710;8.736;2024-02-26T01:32:06;4.70;99.90
54960;DHT22;40860;51.710;8.736;2024-02-26T01:36:09;4.80;99.90
54960;DHT22;40860;51.710;8.736;2024-02-26T01:40:13;4.80;99.90
54960;DHT22;40860;51.710;8.736;2024-02-26T01:44:21;4.90;99.90
54960;DHT22;40860;51.710;8.736;2024-02-26T01:48:24;5.00;99.90
54960;DHT22;40860;51.710;8.736;2024-02-26T01:52:28;5.10;99.90
54960;DHT22;40860;51.710;8.736;2024-02-26T01:56:31;5.20;99.90
54960;DHT22;40860;51.710;8.736;2024-02-26T02:00:35;5.40;99.90
54960;DHT22;40860;51.710;8.736;2024-02-26T02:04:39;5.50;99.90
54960;DHT22;40860;51.710;8.736;2024-02-26T02:08:42;5.60;99.90
54960;DHT22;40860;51.710;8.736;2024-02-26T02:12:45;5.70;99.90
54960;DHT22;40860;51.710;8.736;2024-02-26T02:16:49;5.80;99.90
54960;DHT22;40860;51.710;8.736;2024-02-26T02:20:55;5.80;99.90
54960;DHT22;40860;51.710;8.736;2024-02-26T02:25:01;5.90;99.90
54960;DHT22;40860;51.710;8.736;2024-02-26T02:29:06;5.90;99.90
54960;DHT22;40860;51.710;8.736;2024-02-26T02:33:09;5.90;99.90
54960;DHT22;40860;51.710;8.736;2024-02-26T02:37:15;5.90;99.90
54960;DHT22;40860;51.710;8.736;2024-02-26T02:41:18;5.90;99.90
54960;DHT22;40860;51.710;8.736;2024-02-26T02:45:21;5.90;99.90
54960;DHT22;40860;51.710;8.736;2024-02-26T02:49:24;5.90;99.90
54960;DHT22;40860;51.710;8.736;2024-02-26T02:53:29;6.00;99.90
54960;DHT22;40860;51.710;8.736;2024-02-26T02:57:32;6.00;99.70
54960;DHT22;40860;51.710;8.736;2024-02-26T03:01:35;6.00;99.90
54960;DHT22;40860;51.710;8.736;2024-02-26T03:05:38;6.10;99.60
54960;DHT22;40860;51.710;8.736;2024-02-26T03:09:42;6.10;99.40
54960;DHT22;40860;51.710;8.736;2024-02-26T03:13:45;6.10;99.30
54960;DHT22;40860;51.710;8.736;2024-02-26T03:17:48;6.10;99.20
54960;DHT22;40860;51.710;8.736;2024-02-26T03:21:51;6.20;99.10
54960;DHT22;40860;51.710;8.736;2024-02-26T03:25:55;6.20;99.10
54960;DHT22;40860;51.710;8.736;2024-02-26T03:29:58;6.20;99.10
54960;DHT22;40860;51.710;8.736;2024-02-26T03:34:01;6.20;99.00
54960;DHT22;40860;51.710;8.736;2024-02-26T03:38:04;6.20;99.10
54960;DHT22;40860;51.710;8.736;2024-02-26T03:42:09;6.10;99.10
54960;DHT22;40860;51.710;8.736;2024-02-26T03:46:12;6.20;99.00
54960;DHT22;40860;51.710;8.736;2024-02-26T03:50:15;6.20;99.00
54960;DHT22;40860;51.710;8.736;2024-02-26T03:54:18;6.20;99.00
54960;DHT22;40860;51.710;8.736;2024-02-26T03:58:23;6.20;99.10
54960;DHT22;40860;51.710;8.736;2024-02-26T04:02:25;6.20;99.10
54960;DHT22;40860;51.710;8.736;2024-02-26T04:06:28;6.20;99.10
54960;DHT22;40860;51.710;8.736;2024-02-26T04:10:31;6.20;99.00
54960;DHT22;40860;51.710;8.736;2024-02-26T04:14:37;6.20;98.90
54960;DHT22;40860;51.710;8.736;2024-02-26T04:18:40;6.20;98.70
54960;DHT22;40860;51.710;8.736;2024-02-26T04:22:44;6.30;98.60
54960;DHT22;40860;51.710;8.736;2024-02-26T04:26:46;6.30;98.50
54960;DHT22;40860;51.710;8.736;2024-02-26T04:30:52;6.30;98.60
54960;DHT22;40860;51.710;8.736;2024-02-26T04:34:55;6.30;98.60
54960;DHT22;40860;51.710;8.736;2024-02-26T04:38:58;6.30;98.80
54960;DHT22;40860;51.710;8.736;2024-02-26T04:43:01;6.20;98.90
54960;DHT22;40860;51.710;8.736;2024-02-26T04:47:05;6.20;98.80
54960;DHT22;40860;51.710;8.736;2024-02-26T04:51:09;6.30;98.70
54960;DHT22;40860;51.710;8.736;2024-02-26T04:55:12;6.30;98.90
54960;DHT22;40860;51.710;8.736;2024-02-26T04:59:15;6.30;99.00
54960;DHT22;40860;51.710;8.736;2024-02-26T05:03:19;6.20;99.20
54960;DHT22;40860;51.710;8.736;2024-02-26T05:07:22;6.20;99.30
54960;DHT22;40860;51.710;8.736;2024-02-26T05:11:25;6.30;99.10
54960;DHT22;40860;51.710;8.736;2024-02-26T05:15:28;6.30;98.90
54960;DHT22;40860;51.710;8.736;2024-02-26T05:19:32;6.40;98.90
54960;DHT22;40860;51.710;8.736;2024-02-26T05:23:35;6.40;98.70
54960;DHT22;40860;51.710;8.736;2024-02-26T05:27:38;6.50;98.40
54960;DHT22;40860;51.710;8.736;2024-02-26T05:31:42;6.60;98.20
54960;DHT22;40860;51.710;8.736;2024-02-26T05:35:46;6.60;98.30
54960;DHT22;40860;51.710;8.736;2024-02-26T05:39:49;6.70;98.30
54960;DHT22;40860;51.710;8.736;2024-02-26T05:43:52;6.60;98.40
54960;DHT22;40860;51.710;8.736;2024-02-26T05:47:55;6.50;98.70
54960;DHT22;40860;51.710;8.736;2024-02-26T05:51:59;6.40;98.70
54960;DHT22;40860;51.710;8.736;2024-02-26T05:56:02;6.50;98.50
54960;DHT22;40860;51.710;8.736;2024-02-26T06:00:06;6.60;98.20
54960;DHT22;40860;51.710;8.736;2024-02-26T06:04:14;6.60;98.10
54960;DHT22;40860;51.710;8.736;2024-02-26T06:08:20;6.60;98.20
54960;DHT22;40860;51.710;8.736;2024-02-26T06:12:22;6.70;98.20
54960;DHT22;40860;51.710;8.736;2024-02-26T06:16:25;6.70;98.20
54960;DHT22;40860;51.710;8.736;2024-02-26T06:20:29;6.70;98.00
54960;DHT22;40860;51.710;8.736;2024-02-26T06:24:33;6.70;98.00
54960;DHT22;40860;51.710;8.736;2024-02-26T06:28:36;6.70;98.00
54960;DHT22;40860;51.710;8.736;2024-02-26T06:32:42;6.70;98.10
54960;DHT22;40860;51.710;8.736;2024-02-26T06:36:45;6.60;98.00
54960;DHT22;40860;51.710;8.736;2024-02-26T06:40:50;6.60;98.00
54960;DHT22;40860;51.710;8.736;2024-02-26T06:44:52;6.70;98.10
54960;DHT22;40860;51.710;8.736;2024-02-26T06:48:56;6.60;98.20
54960;DHT22;40860;51.710;8.736;2024-02-26T06:52:59;6.70;98.10
54960;DHT22;40860;51.710;8.736;2024-02-26T06:57:03;6.60;98.20
54960;DHT22;40860;51.710;8.736;2024-02-26T07:01:06;6.60;98.10
54960;DHT22;40860;51.710;8.736;2024-02-26T07:05:10;6.60;98.00
54960;DHT22;40860;51.710;8.736;2024-02-26T07:09:14;6.60;98.20
54960;DHT22;40860;51.710;8.736;2024-02-26T07:13:18;6.60;98.50
54960;DHT22;40860;51.710;8.736;2024-02-26T07:17:22;6.60;98.80
54960;DHT22;40860;51.710;8.736;2024-02-26T07:21:25;6.50;99.50
54960;DHT22;40860;51.710;8.736;2024-02-26T07:25:28;6.50;99.30
54960;DHT22;40860;51.710;8.736;2024-02-26T07:29:33;6.50;99.20
54960;DHT22;40860;51.710;8.736;2024-02-26T07:33:35;6.50;98.80
54960;DHT22;40860;51.710;8.736;2024-02-26T07:37:38;6.50;98.70
54960;DHT22;40860;51.710;8.736;2024-02-26T07:41:41;6.50;98.80
54960;DHT22;40860;51.710;8.736;2024-02-26T07:45:49;6.60;98.70
54960;DHT22;40860;51.710;8.736;2024-02-26T07:49:52;6.60;98.70
54960;DHT22;40860;51.710;8.736;2024-02-26T07:53:55;6.60;98.90
54960;DHT22;40860;51.710;8.736;2024-02-26T07:57:58;6.70;98.70
54960;DHT22;40860;51.710;8.736;2024-02-26T08:02:03;6.80;99.00
54960;DHT22;40860;51.710;8.736;2024-02-26T08:06:08;6.80;99.10
54960;DHT22;40860;51.710;8.736;2024-02-26T08:10:11;6.80;98.70
54960;DHT22;40860;51.710;8.736;2024-02-26T08:14:14;6.90;98.70
54960;DHT22;40860;51.710;8.736;2024-02-26T08:18:18;6.90;98.50
54960;DHT22;40860;51.710;8.736;2024-02-26T08:22:21;6.90;98.20
54960;DHT22;40860;51.710;8.736;2024-02-26T08:26:24;7.00;98.50
54960;DHT22;40860;51.710;8.736;2024-02-26T08:30:27;7.10;98.10
54960;DHT22;40860;51.710;8.736;2024-02-26T08:34:31;7.10;98.30
54960;DHT22;40860;51.710;8.736;2024-02-26T08:38:34;7.20;98.10
54960;DHT22;40860;51.710;8.736;2024-02-26T08:42:37;7.30;98.10
54960;DHT22;40860;51.710;8.736;2024-02-26T08:46:40;7.40;98.00
54960;DHT22;40860;51.710;8.736;2024-02-26T08:50:44;7.50;97.80
54960;DHT22;40860;51.710;8.736;2024-02-26T08:54:47;7.60;97.70
54960;DHT22;40860;51.710;8.736;2024-02-26T08:58:50;7.80;97.70
54960;DHT22;40860;51.710;8.736;2024-02-26T09:02:55;8.00;97.40
54960;DHT22;40860;51.710;8.736;2024-02-26T09:06:59;8.10;97.10
54960;DHT22;40860;51.710;8.736;2024-02-26T09:11:03;8.30;97.10
54960;DHT22;40860;51.710;8.736;2024-02-26T09:15:07;8.50;96.70
54960;DHT22;40860;51.710;8.736;2024-02-26T09:19:10;8.70;97.00
54960;DHT22;40860;51.710;8.736;2024-02-26T09:23:14;8.90;96.00
54960;DHT22;40860;51.710;8.736;2024-02-26T09:27:17;9.10;95.80
54960;DHT22;40860;51.710;8.736;2024-02-26T09:31:20;9.10;95.90
54960;DHT22;40860;51.710;8.736;2024-02-26T09:35:23;9.30;95.20
54960;DHT22;40860;51.710;8.736;2024-02-26T09:39:27;9.30;94.90
54960;DHT22;40860;51.710;8.736;2024-02-26T09:43:34;9.40;95.00
54960;DHT22;40860;51.710;8.736;2024-02-26T09:47:38;9.50;94.40
54960;DHT22;40860;51.710;8.736;2024-02-26T09:51:41;9.60;94.30
54960;DHT22;40860;51.710;8.736;2024-02-26T09:55:46;9.80;93.70
54960;DHT22;40860;51.710;8.736;2024-02-26T09:59:50;10.00;93.70
54960;DHT22;40860;51.710;8.736;2024-02-26T10:03:55;10.10;93.40
54960;DHT22;40860;51.710;8.736;2024-02-26T10:08:00;10.20;92.90
54960;DHT22;40860;51.710;8.736;2024-02-26T10:12:07;10.40;92.90
54960;DHT22;40860;51.710;8.736;2024-02-26T10:16:11;10.30;91.70
54960;DHT22;40860;51.710;8.736;2024-02-26T10:20:15;10.30;91.50
54960;DHT22;40860;51.710;8.736;2024-02-26T10:24:19;10.40;91.80
54960;DHT22;40860;51.710;8.736;2024-02-26T10:28:23;10.40;91.50
54960;DHT22;40860;51.710;8.736;2024-02-26T10:32:26;10.40;91.60
54960;DHT22;40860;51.710;8.736;2024-02-26T10:36:33;10.40;91.40
54960;DHT22;40860;51.710;8.736;2024-02-26T10:40:49;10.40;91.50
54960;DHT22;40860;51.710;8.736;2024-02-26T10:44:53;10.50;91.20
54960;DHT22;40860;51.710;8.736;2024-02-26T10:48:56;10.50;91.30
54960;DHT22;40860;51.710;8.736;2024-02-26T10:52:59;10.60;91.50
54960;DHT22;40860;51.710;8.736;2024-02-26T10:57:04;10.70;91.40
54960;DHT22;40860;51.710;8.736;2024-02-26T11:01:09;10.60;91.20
54960;DHT22;40860;51.710;8.736;2024-02-26T11:05:12;10.60;91.30
54960;DHT22;40860;51.710;8.736;2024-02-26T11:09:16;10.50;91.50
54960;DHT22;40860;51.710;8.736;2024-02-26T11:13:21;10.40;91.70
54960;DHT22;40860;51.710;8.736;2024-02-26T11:17:29;10.30;92.00
54960;DHT22;40860;51.710;8.736;2024-02-26T11:21:33;10.10;92.30
54960;DHT22;40860;51.710;8.736;2024-02-26T11:25:42;10.00;92.60
54960;DHT22;40860;51.710;8.736;2024-02-26T11:29:48;9.90;92.80
54960;DHT22;40860;51.710;8.736;2024-02-26T11:33:56;9.90;93.00
54960;DHT22;40860;51.710;8.736;2024-02-26T11:37:59;9.90;93.00
54960;DHT22;40860;51.710;8.736;2024-02-26T11:42:05;9.90;93.20
54960;DHT22;40860;51.710;8.736;2024-02-26T11:46:24;9.90;93.30
54960;DHT22;40860;51.710;8.736;2024-02-26T11:50:36;9.90;93.40
54960;DHT22;40860;51.710;8.736;2024-02-26T11:54:45;9.90;93.30
54960;DHT22;40860;51.710;8.736;2024-02-26T11:58:53;9.90;93.30
54960;DHT22;40860;51.710;8.736;2024-02-26T12:02:56;10.00;93.50
54960;DHT22;40860;51.710;8.736;2024-02-26T12:07:04;10.10;93.10
54960;DHT22;40860;51.710;8.736;2024-02-26T12:11:14;10.10;93.10
54960;DHT22;40860;51.710;8.736;2024-02-26T12:15:19;10.20;93.00
54960;DHT22;40860;51.710;8.736;2024-02-26T12:19:23;10.10;93.10
54960;DHT22;40860;51.710;8.736;2024-02-26T12:23:28;10.10;93.20
54960;DHT22;40860;51.710;8.736;2024-02-26T12:27:32;10.10;93.40
54960;DHT22;40860;51.710;8.736;2024-02-26T12:31:35;10.20;93.60
54960;DHT22;40860;51.710;8.736;2024-02-26T12:35:38;10.10;93.90
54960;DHT22;40860;51.710;8.736;2024-02-26T12:39:43;10.10;94.30
54960;DHT22;40860;51.710;8.736;2024-02-26T12:43:47;10.20;94.70
54960;DHT22;40860;51.710;8.736;2024-02-26T12:47:51;10.20;94.50
54960;DHT22;40860;51.710;8.736;2024-02-26T12:51:54;10.10;94.80
54960;DHT22;40860;51.710;8.736;2024-02-26T12:56:05;10.10;94.80
54960;DHT22;40860;51.710;8.736;2024-02-26T13:00:13;10.10;95.10
54960;DHT22;40860;51.710;8.736;2024-02-26T13:04:17;10.00;95.00
54960;DHT22;40860;51.710;8.736;2024-02-26T13:08:20;10.00;95.00
54960;DHT22;40860;51.710;8.736;2024-02-26T13:12:25;10.10;95.40
54960;DHT22;40860;51.710;8.736;2024-02-26T13:16:28;10.00;95.30
54960;DHT22;40860;51.710;8.736;2024-02-26T13:20:31;10.00;95.20
54960;DHT22;40860;51.710;8.736;2024-02-26T13:24:36;9.90;95.30
54960;DHT22;40860;51.710;8.736;2024-02-26T13:28:40;9.90;95.30
54960;DHT22;40860;51.710;8.736;2024-02-26T13:32:43;9.90;95.50
54960;DHT22;40860;51.710;8.736;2024-02-26T13:36:49;9.80;95.80
54960;DHT22;40860;51.710;8.736;2024-02-26T13:40:52;9.80;95.60
54960;DHT22;40860;51.710;8.736;2024-02-26T13:44:56;9.80;95.50
54960;DHT22;40860;51.710;8.736;2024-02-26T13:48:59;9.70;95.30
54960;DHT22;40860;51.710;8.736;2024-02-26T13:53:02;9.70;95.30
54960;DHT22;40860;51.710;8.736;2024-02-26T13:57:05;9.70;95.20
54960;DHT22;40860;51.710;8.736;2024-02-26T14:01:10;9.70;95.10
54960;DHT22;40860;51.710;8.736;2024-02-26T14:05:13;9.60;95.00
54960;DHT22;40860;51.710;8.736;2024-02-26T14:09:15;9.60;95.10
54960;DHT22;40860;51.710;8.736;2024-02-26T14:13:20;9.60;95.30
54960;DHT22;40860;51.710;8.736;2024-02-26T14:17:25;9.60;95.20
54960;DHT22;40860;51.710;8.736;2024-02-26T14:21:28;9.60;95.20
54960;DHT22;40860;51.710;8.736;2024-02-26T14:25:31;9.60;95.30
54960;DHT22;40860;51.710;8.736;2024-02-26T14:29:34;9.60;95.20
54960;DHT22;40860;51.710;8.736;2024-02-26T14:33:41;9.60;95.20
54960;DHT22;40860;51.710;8.736;2024-02-26T14:37:44;9.60;95.40
54960;DHT22;40860;51.710;8.736;2024-02-26T14:41:49;9.60;95.10
54960;DHT22;40860;51.710;8.736;2024-02-26T14:45:53;9.60;95.10
54960;DHT22;40860;51.710;8.736;2024-02-26T14:49:57;9.60;95.00
54960;DHT22;40860;51.710;8.736;2024-02-26T14:54:00;9.60;95.20
54960;DHT22;40860;51.710;8.736;2024-02-26T14:58:04;9.60;94.90
54960;DHT22;40860;51.710;8.736;2024-02-26T15:02:07;9.60;95.10
54960;DHT22;40860;51.710;8.736;2024-02-26T15:06:12;9.60;95.20
54960;DHT22;40860;51.710;8.736;2024-02-26T15:10:15;9.50;95.40
54960;DHT22;40860;51.710;8.736;2024-02-26T15:14:18;9.50;95.40
54960;DHT22;40860;51.710;8.736;2024-02-26T15:18:21;9.50;95.80
54960;DHT22;40860;51.710;8.736;2024-02-26T15:22:26;9.40;95.90
54960;DHT22;40860;51.710;8.736;2024-02-26T15:26:29;9.40;95.90
54960;DHT22;40860;51.710;8.736;2024-02-26T15:30:32;9.40;95.70
54960;DHT22;40860;51.710;8.736;2024-02-26T15:34:35;9.30;95.60
54960;DHT22;40860;51.710;8.736;2024-02-26T15:38:40;9.30;95.90
54960;DHT22;40860;51.710;8.736;2024-02-26T15:42:42;9.30;95.90
54960;DHT22;40860;51.710;8.736;2024-02-26T15:46:45;9.30;95.80
54960;DHT22;40860;51.710;8.736;2024-02-26T15:50:48;9.30;95.90
54960;DHT22;40860;51.710;8.736;2024-02-26T15:54:53;9.30;95.90
54960;DHT22;40860;51.710;8.736;2024-02-26T15:58:55;9.30;95.90
54960;DHT22;40860;51.710;8.736;2024-02-26T16:02:58;9.30;95.90
54960;DHT22;40860;51.710;8.736;2024-02-26T16:07:03;9.30;96.10
54960;DHT22;40860;51.710;8.736;2024-02-26T16:11:12;9.20;96.50
54960;DHT22;40860;51.710;8.736;2024-02-26T16:15:15;9.20;96.60
54960;DHT22;40860;51.710;8.736;2024-02-26T16:19:19;9.10;97.00
54960;DHT22;40860;51.710;8.736;2024-02-26T16:23:22;9.00;97.00
54960;DHT22;40860;51.710;8.736;2024-02-26T16:27:26;9.00;97.10
54960;DHT22;40860;51.710;8.736;2024-02-26T16:31:29;9.00;97.20
54960;DHT22;40860;51.710;8.736;2024-02-26T16:35:33;9.00;97.50
54960;DHT22;40860;51.710;8.736;2024-02-26T16:39:36;8.90;97.30
54960;DHT22;40860;51.710;8.736;2024-02-26T16:43:41;8.90;97.00
54960;DHT22;40860;51.710;8.736;2024-02-26T16:47:44;8.90;96.80
54960;DHT22;40860;51.710;8.736;2024-02-26T16:51:47;8.90;96.70
54960;DHT22;40860;51.710;8.736;2024-02-26T16:55:54;8.90;96.70
54960;DHT22;40860;51.710;8.736;2024-02-26T17:00:10;8.80;96.70
54960;DHT22;40860;51.710;8.736;2024-02-26T17:04:16;8.80;96.90
54960;DHT22;40860;51.710;8.736;2024-02-26T17:08:19;8.70;96.90
54960;DHT22;40860;51.710;8.736;2024-02-26T17:12:22;8.70;96.90
54960;DHT22;40860;51.710;8.736;2024-02-26T17:16:26;8.70;97.10
54960;DHT22;40860;51.710;8.736;2024-02-26T17:20:31;8.70;97.00
54960;DHT22;40860;51.710;8.736;2024-02-26T17:24:34;8.60;97.10
54960;DHT22;40860;51.710;8.736;2024-02-26T17:28:37;8.60;97.20
54960;DHT22;40860;51.710;8.736;2024-02-26T17:32:43;8.60;97.30
54960;DHT22;40860;51.710;8.736;2024-02-26T17:36:47;8.50;97.40
54960;DHT22;40860;51.710;8.736;2024-02-26T17:40:50;8.50;97.60
54960;DHT22;40860;51.710;8.736;2024-02-26T17:44:53;8.50;97.80
54960;DHT22;40860;51.710;8.736;2024-02-26T17:48:57;8.40;98.00
54960;DHT22;40860;51.710;8.736;2024-02-26T17:53:00;8.40;98.20
54960;DHT22;40860;51.710;8.736;2024-02-26T17:57:03;8.40;98.40
54960;DHT22;40860;51.710;8.736;2024-02-26T18:01:08;8.30;98.70
54960;DHT22;40860;51.710;8.736;2024-02-26T18:05:12;8.30;98.60
54960;DHT22;40860;51.710;8.736;2024-02-26T18:09:16;8.30;98.90
54960;DHT22;40860;51.710;8.736;2024-02-26T18:13:19;8.30;99.00
54960;DHT22;40860;51.710;8.736;2024-02-26T18:17:22;8.30;99.00
54960;DHT22;40860;51.710;8.736;2024-02-26T18:21:26;8.30;99.10
54960;DHT22;40860;51.710;8.736;2024-02-26T18:25:30;8.30;99.10
54960;DHT22;40860;51.710;8.736;2024-02-26T18:29:33;8.20;99.30
54960;DHT22;40860;51.710;8.736;2024-02-26T18:33:36;8.30;99.30
54960;DHT22;40860;51.710;8.736;2024-02-26T18:37:40;8.20;99.40
54960;DHT22;40860;51.710;8.736;2024-02-26T18:41:43;8.20;99.40
54960;DHT22;40860;51.710;8.736;2024-02-26T18:45:46;8.20;99.50
54960;DHT22;40860;51.710;8.736;2024-02-26T18:49:49;8.20;99.70
54960;DHT22;40860;51.710;8.736;2024-02-26T18:53:54;8.20;99.80
54960;DHT22;40860;51.710;8.736;2024-02-26T18:57:57;8.20;99.80
54960;DHT22;40860;51.710;8.736;2024-02-26T19:02:02;8.10;99.90
54960;DHT22;40860;51.710;8.736;2024-02-26T19:06:08;8.10;99.90
54960;DHT22;40860;51.710;8.736;2024-02-26T19:10:12;8.10;99.90
54960;DHT22;40860;51.710;8.736;2024-02-26T19:14:15;8.10;99.90
54960;DHT22;40860;51.710;8.736;2024-02-26T19:18:18;8.10;99.90
54960;DHT22;40860;51.710;8.736;2024-02-26T19:22:21;8.10;99.90
54960;DHT22;40860;51.710;8.736;2024-02-26T19:26:25;8.10;99.90
54960;DHT22;40860;51.710;8.736;2024-02-26T19:30:28;8.10;99.90
54960;DHT22;40860;51.710;8.736;2024-02-26T19:34:31;8.00;99.90
54960;DHT22;40860;51.710;8.736;2024-02-26T19:38:35;8.00;99.90
54960;DHT22;40860;51.710;8.736;2024-02-26T19:42:39;7.90;99.90
54960;DHT22;40860;51.710;8.736;2024-02-26T19:46:42;7.90;99.90
54960;DHT22;40860;51.710;8.736;2024-02-26T19:50:44;7.90;99.90
54960;DHT22;40860;51.710;8.736;2024-02-26T19:54:47;7.90;99.90
54960;DHT22;40860;51.710;8.736;2024-02-26T19:58:51;7.80;99.90
54960;DHT22;40860;51.710;8.736;2024-02-26T20:02:54;7.80;99.90
54960;DHT22;40860;51.710;8.736;2024-02-26T20:06:57;7.80;99.90
54960;DHT22;40860;51.710;8.736;2024-02-26T20:11:00;7.80;99.90
54960;DHT22;40860;51.710;8.736;2024-02-26T20:15:05;7.70;99.90
54960;DHT22;40860;51.710;8.736;2024-02-26T20:19:08;7.70;99.90
54960;DHT22;40860;51.710;8.736;2024-02-26T20:23:13;7.70;99.90
54960;DHT22;40860;51.710;8.736;2024-02-26T20:27:16;7.70;99.90
54960;DHT22;40860;51.710;8.736;2024-02-26T20:31:20;7.70;99.90
54960;DHT22;40860;51.710;8.736;2024-02-26T20:35:23;7.70;99.90
54960;DHT22;40860;51.710;8.736;2024-02-26T20:39:26;7.60;99.90
54960;DHT22;40860;51.710;8.736;2024-02-26T20:43:30;7.60;99.90
54960;DHT22;40860;51.710;8.736;2024-02-26T20:47:37;7.60;99.90
54960;DHT22;40860;51.710;8.736;2024-02-26T20:51:39;7.60;99.90
54960;DHT22;40860;51.710;8.736;2024-02-26T20:55:42;7.60;99.90
54960;DHT22;40860;51.710;8.736;2024-02-26T20:59:45;7.60;99.90
54960;DHT22;40860;51.710;8.736;2024-02-26T21:03:49;7.60;99.90
54960;DHT22;40860;51.710;8.736;2024-02-26T21:07:52;7.60;99.90
54960;DHT22;40860;51.710;8.736;2024-02-26T21:11:55;7.60;99.90
54960;DHT22;40860;51.710;8.736;2024-02-26T21:15:58;7.60;99.90
54960;DHT22;40860;51.710;8.736;2024-02-26T21:20:04;7.60;99.90
54960;DHT22;40860;51.710;8.736;2024-02-26T21:24:08;7.60;99.90
54960;DHT22;40860;51.710;8.736;2024-02-26T21:28:11;7.50;99.90
54960;DHT22;40860;51.710;8.736;2024-02-26T21:32:14;7.50;99.90
54960;DHT22;40860;51.710;8.736;2024-02-26T21:36:18;7.50;99.90
54960;DHT22;40860;51.710;8.736;2024-02-26T21:40:21;7.50;99.90
54960;DHT22;40860;51.710;8.736;2024-02-26T21:44:24;7.40;99.90
54960;DHT22;40860;51.710;8.736;2024-02-26T21:48:26;7.40;99.90
54960;DHT22;40860;51.710;8.736;2024-02-26T21:52:31;7.40;99.90
54960;DHT22;40860;51.710;8.736;2024-02-26T21:56:35;7.40;99.90
54960;DHT22;40860;51.710;8.736;2024-02-26T22:00:37;7.30;99.90
54960;DHT22;40860;51.710;8.736;2024-02-26T22:04:40;7.30;99.90
54960;DHT22;40860;51.710;8.736;2024-02-26T22:08:45;7.20;99.90
54960;DHT22;40860;51.710;8.736;2024-02-26T22:12:48;7.20;99.90
54960;DHT22;40860;51.710;8.736;2024-02-26T22:16:50;7.10;99.90
54960;DHT22;40860;51.710;8.736;2024-02-26T22:20:54;7.10;99.90
54960;DHT22;40860;51.710;8.736;2024-02-26T22:24:58;7.00;99.90
54960;DHT22;40860;51.710;8.736;2024-02-26T22:29:01;7.00;99.90
54960;DHT22;40860;51.710;8.736;2024-02-26T22:33:05;6.90;99.90
54960;DHT22;40860;51.710;8.736;2024-02-26T22:37:08;6.90;99.90
54960;DHT22;40860;51.710;8.736;2024-02-26T22:41:12;6.80;99.90
54960;DHT22;40860;51.710;8.736;2024-02-26T22:45:15;6.80;99.90
54960;DHT22;40860;51.710;8.736;2024-02-26T22:49:18;6.80;99.90
54960;DHT22;40860;51.710;8.736;2024-02-26T22:53:22;6.80;99.90
54960;DHT22;40860;51.710;8.736;2024-02-26T22:57:26;6.80;99.90
54960;DHT22;40860;51.710;8.736;2024-02-26T23:01:29;6.70;99.90
54960;DHT22;40860;51.710;8.736;2024-02-26T23:05:32;6.70;99.90
54960;DHT22;40860;51.710;8.736;2024-02-26T23:09:36;6.80;99.90
54960;DHT22;40860;51.710;8.736;2024-02-26T23:13:40;6.70;99.90
54960;DHT22;40860;51.710;8.736;2024-02-26T23:17:43;6.80;99.90
54960;DHT22;40860;51.710;8.736;2024-02-26T23:21:46;6.80;99.90
54960;DHT22;40860;51.710;8.736;2024-02-26T23:25:50;6.80;99.90
54960;DHT22;40860;51.710;8.736;2024-02-26T23:29:54;6.80;99.90
54960;DHT22;40860;51.710;8.736;2024-02-26T23:33:57;6.80;99.90
54960;DHT22;40860;51.710;8.736;2024-02-26T23:38:00;6.80;99.90
54960;DHT22;40860;51.710;8.736;2024-02-26T23:42:03;6.80;99.90
54960;DHT22;40860;51.710;8.736;2024-02-26T23:46:10;6.80;99.90
54960;DHT22;40860;51.710;8.736;2024-02-26T23:50:13;6.80;99.90
54960;DHT22;40860;51.710;8.736;2024-02-26T23:54:16;6.80;99.90
54960;DHT22;40860;51.710;8.736;2024-02-26T23:58:21;6.80;99.90
